Time;durP1;ratioP1;P1;durP2;ratioP2;P2;SDS_P1;SDS_P2;PMS_P1;PMS_P2;Temp;Humidity;BMP_temperature;BMP_pressure;BME280_temperature;BME280_humidity;BME280_pressure;Samples;Min_cycle;Max_cycle;Signal;HPM_P1;HPM_P2
2023/12/07 00:01:01;;;;;;;19.80;11.70;;;1.00;99.90;;;;;;7808209;28;20182;-89
2023/12/07 00:04:47;;;;;;;19.90;12.20;;;1.10;99.90;;;;;;7802304;28;20274;-88
2023/12/07 00:08:33;;;;;;;19.63;11.70;;;1.10;99.90;;;;;;7812097;28;20210;-87
2023/12/07 00:12:18;;;;;;;19.60;12.20;;;1.10;99.90;;;;;;7803954;28;20182;-88
2023/12/07 00:16:04;;;;;;;19.70;12.57;;;1.10;99.90;;;;;;7807634;28;20178;-86
2023/12/07 00:19:53;;;;;;;20.70;12.27;;;1.10;99.90;;;;;;7809820;28;20193;-88
2023/12/07 00:23:39;;;;;;;18.93;12.30;;;1.20;99.90;;;;;;7808456;28;20213;-88
2023/12/07 00:27:25;;;;;;;20.30;12.37;;;1.10;99.90;;;;;;7808026;28;20214;-88
2023/12/07 00:31:10;;;;;;;18.73;12.17;;;1.00;99.90;;;;;;7808284;28;20178;-88
2023/12/07 00:34:56;;;;;;;19.93;11.63;;;1.10;99.90;;;;;;7811228;28;20776;-88
2023/12/07 00:38:42;;;;;;;19.47;12.37;;;1.00;99.90;;;;;;7819675;28;20819;-88
2023/12/07 00:42:27;;;;;;;20.87;12.20;;;1.10;99.90;;;;;;7807863;28;20241;-89
2023/12/07 00:46:13;;;;;;;16.57;11.33;;;1.00;99.90;;;;;;7807320;28;20297;-88
2023/12/07 00:49:59;;;;;;;19.17;11.60;;;1.10;99.90;;;;;;7812481;28;20214;-88
2023/12/07 00:53:44;;;;;;;19.80;12.40;;;1.00;99.90;;;;;;7801421;28;20175;-88
2023/12/07 00:57:30;;;;;;;20.20;12.20;;;1.10;99.90;;;;;;7799681;28;20206;-88
2023/12/07 01:01:15;;;;;;;16.93;10.97;;;1.00;99.90;;;;;;7806773;28;20189;-88
2023/12/07 01:05:01;;;;;;;18.30;11.77;;;1.10;99.90;;;;;;7812611;28;20178;-88
2023/12/07 01:08:47;;;;;;;20.40;12.50;;;1.10;99.90;;;;;;7800617;28;20219;-88
2023/12/07 01:12:32;;;;;;;17.80;11.50;;;1.10;99.90;;;;;;7805445;28;20266;-88
2023/12/07 01:16:18;;;;;;;17.47;11.33;;;1.00;99.90;;;;;;7806784;28;20568;-88
2023/12/07 01:20:10;;;;;;;19.73;12.57;;;1.10;99.90;;;;;;7806896;28;20598;-88
2023/12/07 01:23:58;;;;;;;19.33;11.90;;;1.10;99.90;;;;;;7807862;28;20395;-88
2023/12/07 01:27:44;;;;;;;17.90;11.60;;;1.10;99.90;;;;;;7801178;28;20214;-88
2023/12/07 01:31:30;;;;;;;17.43;11.50;;;1.20;99.90;;;;;;7814194;28;20228;-88
2023/12/07 01:35:15;;;;;;;20.20;12.03;;;1.10;99.90;;;;;;7807723;28;20178;-88
2023/12/07 01:39:01;;;;;;;22.23;13.63;;;1.10;99.90;;;;;;7805587;28;20198;-88
2023/12/07 01:42:51;;;;;;;20.07;12.30;;;1.10;99.90;;;;;;7805853;28;20228;-88
2023/12/07 01:46:37;;;;;;;19.23;12.37;;;1.20;99.90;;;;;;7807290;28;20206;-88
2023/12/07 01:50:23;;;;;;;18.83;11.83;;;1.10;99.90;;;;;;7809999;28;20246;-88
2023/12/07 01:54:09;;;;;;;20.97;12.17;;;1.10;99.90;;;;;;7807337;28;20189;-88
2023/12/07 01:57:55;;;;;;;20.50;11.63;;;1.20;99.90;;;;;;7803157;28;20210;-88
2023/12/07 02:01:41;;;;;;;18.07;11.67;;;1.20;99.90;;;;;;7796816;28;20186;-88
2023/12/07 02:05:26;;;;;;;19.33;12.10;;;1.10;99.90;;;;;;7821430;28;20675;-88
2023/12/07 02:09:12;;;;;;;16.57;11.00;;;1.10;99.90;;;;;;7813605;28;20206;-88
2023/12/07 02:12:58;;;;;;;21.80;12.17;;;1.20;99.90;;;;;;7805850;28;20642;-88
2023/12/07 02:16:47;;;;;;;21.97;13.10;;;1.10;99.90;;;;;;7805875;28;20211;-88
2023/12/07 02:20:45;;;;;;;20.87;13.17;;;1.20;99.90;;;;;;7808450;28;20304;-89
2023/12/07 02:24:33;;;;;;;21.53;12.77;;;1.20;99.90;;;;;;7809675;28;20183;-88
2023/12/07 02:28:19;;;;;;;18.83;12.47;;;1.10;99.90;;;;;;7801210;28;20210;-89
2023/12/07 02:32:05;;;;;;;20.63;13.33;;;1.10;99.90;;;;;;7791046;28;20174;-88
2023/12/07 02:35:51;;;;;;;21.30;12.27;;;1.10;99.90;;;;;;7800566;28;20175;-88
2023/12/07 02:39:37;;;;;;;22.23;13.20;;;1.20;99.90;;;;;;7810647;28;20652;-88
2023/12/07 02:43:23;;;;;;;21.53;13.57;;;1.20;99.90;;;;;;7811111;28;20647;-88
2023/12/07 02:47:09;;;;;;;21.80;13.10;;;1.10;99.90;;;;;;7808259;28;20569;-87
2023/12/07 02:50:54;;;;;;;24.07;14.00;;;1.10;99.90;;;;;;7807226;28;20202;-87
2023/12/07 02:54:40;;;;;;;23.63;13.70;;;1.20;99.90;;;;;;7802334;28;20696;-87
2023/12/07 02:58:26;;;;;;;26.07;14.00;;;1.10;99.90;;;;;;7807160;28;20242;-87
2023/12/07 03:02:11;;;;;;;25.63;14.40;;;1.30;99.90;;;;;;7825352;28;20183;-88
2023/12/07 03:05:57;;;;;;;25.67;14.90;;;1.20;99.90;;;;;;7806428;28;20194;-88
2023/12/07 03:09:42;;;;;;;24.27;13.63;;;1.10;99.90;;;;;;7802537;28;20472;-88
2023/12/07 03:13:28;;;;;;;23.33;13.97;;;1.10;99.90;;;;;;7813185;28;20185;-88
2023/12/07 03:17:14;;;;;;;23.63;14.70;;;1.20;99.90;;;;;;7809323;28;20199;-88
2023/12/07 03:21:02;;;;;;;25.23;14.30;;;1.20;99.90;;;;;;7804151;28;20210;-87
2023/12/07 03:24:51;;;;;;;25.70;14.60;;;1.10;99.90;;;;;;7807216;28;20192;-88
2023/12/07 03:28:37;;;;;;;26.97;14.20;;;1.20;99.90;;;;;;7810431;28;20240;-88
2023/12/07 03:32:23;;;;;;;26.93;14.97;;;1.20;99.90;;;;;;7801858;28;20660;-88
2023/12/07 03:36:11;;;;;;;28.00;15.73;;;1.10;99.90;;;;;;7810282;28;20586;-88
2023/12/07 03:39:57;;;;;;;26.33;14.80;;;1.20;99.90;;;;;;7806545;28;20186;-88
2023/12/07 03:43:43;;;;;;;28.17;14.70;;;1.20;99.90;;;;;;7804027;28;20240;-89
2023/12/07 03:47:28;;;;;;;26.07;15.00;;;1.20;99.90;;;;;;7794143;28;20201;-87
2023/12/07 03:51:16;;;;;;;24.67;15.13;;;1.30;99.90;;;;;;7812356;28;20186;-88
2023/12/07 03:55:01;;;;;;;26.30;14.93;;;1.20;99.90;;;;;;7813192;28;20207;-89
2023/12/07 03:58:47;;;;;;;27.87;15.57;;;1.20;99.90;;;;;;7817959;28;20211;-87
2023/12/07 04:02:33;;;;;;;32.33;17.93;;;1.20;99.90;;;;;;7810948;28;20179;-88
2023/12/07 04:06:20;;;;;;;29.30;17.53;;;1.20;99.90;;;;;;7809281;28;20662;-88
2023/12/07 04:10:06;;;;;;;33.93;18.53;;;1.20;99.90;;;;;;7812084;28;20244;-88
2023/12/07 04:13:52;;;;;;;33.63;19.63;;;1.20;99.90;;;;;;7810844;28;20335;-88
2023/12/07 04:17:38;;;;;;;31.67;18.87;;;1.20;99.90;;;;;;7809353;28;20203;-88
2023/12/07 04:21:23;;;;;;;32.33;18.73;;;1.20;99.90;;;;;;7807208;28;20193;-87
2023/12/07 04:25:09;;;;;;;27.70;17.07;;;1.20;99.90;;;;;;7813569;28;20232;-88
2023/12/07 04:28:55;;;;;;;30.57;17.03;;;1.20;99.90;;;;;;7809446;23;20226;-89
2023/12/07 04:32:40;;;;;;;31.77;17.40;;;1.20;99.90;;;;;;7760763;28;20285;-91
2023/12/07 04:36:26;;;;;;;27.47;16.03;;;1.20;99.90;;;;;;7780772;28;20206;-89
2023/12/07 04:40:12;;;;;;;27.93;15.20;;;1.20;99.90;;;;;;7814793;28;20238;-87
2023/12/07 04:43:57;;;;;;;26.63;14.63;;;1.20;99.90;;;;;;7823073;28;20168;-88
2023/12/07 04:47:43;;;;;;;25.63;15.13;;;1.20;99.90;;;;;;7816091;28;20238;-90
2023/12/07 04:51:28;;;;;;;28.10;16.10;;;1.30;99.90;;;;;;7781093;28;20190;-90
2023/12/07 04:55:15;;;;;;;28.83;15.87;;;1.20;99.90;;;;;;7782407;28;20175;-90
2023/12/07 04:59:01;;;;;;;30.23;15.93;;;1.20;99.90;;;;;;7784211;28;20210;-90
2023/12/07 05:02:47;;;;;;;28.23;15.10;;;1.30;99.90;;;;;;7778399;28;20649;-90
2023/12/07 05:06:35;;;;;;;30.43;16.37;;;1.20;99.90;;;;;;7776173;28;20228;-90
2023/12/07 05:10:20;;;;;;;29.00;15.30;;;1.20;99.90;;;;;;7761325;28;20215;-90
2023/12/07 05:14:07;;;;;;;26.83;14.83;;;1.30;99.90;;;;;;7776684;28;20171;-89
2023/12/07 05:17:52;;;;;;;24.97;14.80;;;1.30;99.90;;;;;;7757417;28;20558;-88
2023/12/07 05:21:38;;;;;;;27.80;14.90;;;1.20;99.90;;;;;;7776129;28;20183;-90
2023/12/07 05:25:24;;;;;;;27.00;15.43;;;1.30;99.90;;;;;;7776942;28;20627;-90
2023/12/07 05:29:18;;;;;;;27.10;14.80;;;1.40;99.90;;;;;;7776433;28;20215;-89
2023/12/07 05:33:04;;;;;;;26.37;14.93;;;1.40;99.90;;;;;;7763337;28;20675;-89
2023/12/07 05:36:50;;;;;;;29.87;15.97;;;1.40;99.90;;;;;;7773554;28;20913;-88
2023/12/07 05:40:39;;;;;;;28.67;15.60;;;1.40;99.90;;;;;;7773928;28;20231;-89
2023/12/07 05:44:24;;;;;;;29.07;15.20;;;1.30;99.90;;;;;;7787755;28;20218;-89
2023/12/07 05:48:11;;;;;;;31.07;14.93;;;1.30;99.90;;;;;;7779584;28;20207;-89
2023/12/07 05:51:59;;;;;;;26.17;14.63;;;1.30;99.90;;;;;;7776984;28;20175;-89
2023/12/07 05:55:44;;;;;;;26.93;14.60;;;1.30;99.90;;;;;;7775526;28;20202;-88
2023/12/07 05:59:30;;;;;;;30.17;14.73;;;1.30;99.90;;;;;;7776103;28;20191;-89
2023/12/07 06:03:16;;;;;;;25.53;15.00;;;1.30;99.90;;;;;;7776731;28;20210;-89
2023/12/07 06:07:03;;;;;;;25.43;14.83;;;1.30;99.90;;;;;;7776321;28;20214;-89
2023/12/07 06:10:49;;;;;;;27.60;14.97;;;1.30;99.90;;;;;;7775785;28;20203;-89
2023/12/07 06:14:34;;;;;;;23.87;14.57;;;1.30;99.90;;;;;;7775976;28;20184;-89
2023/12/07 06:18:24;;;;;;;28.03;14.93;;;1.30;99.90;;;;;;7777741;28;20203;-89
2023/12/07 06:22:10;;;;;;;26.43;15.10;;;1.30;99.90;;;;;;7775438;28;20183;-89
2023/12/07 06:25:58;;;;;;;26.50;14.37;;;1.30;99.90;;;;;;7759386;28;20715;-88
2023/12/07 06:29:43;;;;;;;28.63;14.90;;;1.30;99.90;;;;;;7776040;28;20226;-89
2023/12/07 06:33:29;;;;;;;25.30;14.43;;;1.30;99.90;;;;;;7775518;28;20186;-88
2023/12/07 06:37:15;;;;;;;28.20;15.20;;;1.40;99.90;;;;;;7775591;28;20203;-89
2023/12/07 06:41:00;;;;;;;27.27;15.17;;;1.30;99.90;;;;;;7775882;28;20234;-89
2023/12/07 06:44:49;;;;;;;30.13;15.17;;;1.40;99.90;;;;;;7778286;28;20175;-89
2023/12/07 06:48:34;;;;;;;28.13;15.50;;;1.40;99.90;;;;;;7775735;28;20269;-89
2023/12/07 06:52:20;;;;;;;27.97;16.10;;;1.40;99.90;;;;;;7776145;28;20179;-89
2023/12/07 06:56:06;;;;;;;32.27;17.03;;;1.40;99.90;;;;;;7775433;28;20913;-90
2023/12/07 06:59:53;;;;;;;29.63;15.80;;;1.30;99.90;;;;;;7775395;28;20186;-88
2023/12/07 07:03:39;;;;;;;31.10;16.70;;;1.40;99.90;;;;;;7777065;28;20266;-89
2023/12/07 07:07:24;;;;;;;29.97;15.47;;;1.40;99.90;;;;;;7775033;28;20199;-89
2023/12/07 07:11:15;;;;;;;27.00;15.83;;;1.40;99.90;;;;;;7775705;28;20297;-90
2023/12/07 07:15:01;;;;;;;26.87;15.27;;;1.40;99.90;;;;;;7775172;28;20191;-90
2023/12/07 07:18:47;;;;;;;32.50;17.27;;;1.40;99.90;;;;;;7775471;28;20210;-90
2023/12/07 07:22:34;;;;;;;30.77;16.57;;;1.40;99.90;;;;;;7773362;28;20188;-90
2023/12/07 07:26:19;;;;;;;30.73;15.93;;;1.40;99.90;;;;;;7781245;28;20238;-89
2023/12/07 07:30:06;;;;;;;31.30;16.03;;;1.40;99.90;;;;;;7769973;28;20218;-89
2023/12/07 07:33:51;;;;;;;31.17;15.83;;;1.40;99.90;;;;;;7797428;28;20194;-90
2023/12/07 07:37:38;;;;;;;28.97;16.27;;;1.40;99.90;;;;;;7783124;28;20211;-89
2023/12/07 07:41:24;;;;;;;33.97;17.27;;;1.50;99.90;;;;;;7781230;28;20266;-90
2023/12/07 07:45:10;;;;;;;29.93;16.37;;;1.40;99.90;;;;;;7780654;28;20187;-89
2023/12/07 07:48:55;;;;;;;30.17;16.37;;;1.30;99.90;;;;;;7790573;28;20309;-90
2023/12/07 07:52:41;;;;;;;34.33;16.30;;;1.40;99.90;;;;;;7780474;28;20186;-90
2023/12/07 07:56:27;;;;;;;28.00;15.30;;;1.30;99.90;;;;;;7780907;28;20199;-90
2023/12/07 08:00:13;;;;;;;28.83;15.00;;;1.40;99.90;;;;;;7780558;28;20179;-89
2023/12/07 08:03:59;;;;;;;28.23;15.53;;;1.40;99.90;;;;;;7780103;28;20282;-89
2023/12/07 08:07:45;;;;;;;34.00;18.17;;;1.40;99.90;;;;;;7781333;28;20206;-89
2023/12/07 08:11:32;;;;;;;37.83;19.10;;;1.40;99.90;;;;;;7781555;28;20263;-89
2023/12/07 08:15:18;;;;;;;35.03;17.27;;;1.50;99.90;;;;;;7781118;28;20685;-90
2023/12/07 08:19:03;;;;;;;28.37;15.80;;;1.50;99.90;;;;;;7780220;28;20766;-90
2023/12/07 08:22:49;;;;;;;29.60;15.73;;;1.60;99.90;;;;;;7780119;28;20175;-90
2023/12/07 08:26:35;;;;;;;28.27;16.10;;;1.50;99.90;;;;;;7779801;28;20615;-90
2023/12/07 08:30:21;;;;;;;29.03;15.73;;;1.50;99.90;;;;;;7779577;28;20357;-90
2023/12/07 08:34:07;;;;;;;27.03;15.23;;;1.50;99.90;;;;;;7779286;28;20194;-90
2023/12/07 08:37:52;;;;;;;30.10;16.00;;;1.50;99.90;;;;;;7780173;28;20202;-90
2023/12/07 08:41:38;;;;;;;28.53;15.50;;;1.50;99.90;;;;;;7779642;28;20237;-90
2023/12/07 08:45:24;;;;;;;28.40;15.23;;;1.50;99.90;;;;;;7779867;28;20180;-90
2023/12/07 08:49:09;;;;;;;29.57;15.43;;;1.40;99.90;;;;;;7779267;28;20294;-91
2023/12/07 08:52:55;;;;;;;25.47;14.53;;;1.50;99.90;;;;;;7779429;28;20226;-90
2023/12/07 08:56:44;;;;;;;24.97;14.53;;;1.50;99.90;;;;;;7779030;28;20195;-91
2023/12/07 09:00:31;;;;;;;30.40;15.37;;;1.50;99.90;;;;;;7779478;28;20273;-90
2023/12/07 09:04:17;;;;;;;26.70;14.80;;;1.60;99.90;;;;;;7778957;28;20676;-90
2023/12/07 09:08:10;;;;;;;28.63;15.97;;;1.50;99.90;;;;;;7778459;28;20832;-90
2023/12/07 09:11:56;;;;;;;28.60;14.20;;;1.50;99.90;;;;;;7778437;28;20195;-90
2023/12/07 09:15:42;;;;;;;30.17;14.83;;;1.50;99.90;;;;;;7777945;28;20180;-90
2023/12/07 09:19:28;;;;;;;30.47;15.37;;;1.50;99.90;;;;;;7778397;28;20233;-90
2023/12/07 09:23:17;;;;;;;29.17;15.80;;;1.50;99.90;;;;;;7777939;28;20187;-90
2023/12/07 09:27:02;;;;;;;27.03;15.07;;;1.50;99.90;;;;;;7777613;28;20210;-90
2023/12/07 09:30:48;;;;;;;29.70;16.60;;;1.50;99.90;;;;;;7777529;28;20250;-91
2023/12/07 09:34:34;;;;;;;34.90;19.00;;;1.50;99.90;;;;;;7777938;28;20562;-90
2023/12/07 09:38:20;;;;;;;31.97;18.73;;;1.50;99.90;;;;;;7777765;28;20210;-90
2023/12/07 09:42:05;;;;;;;34.30;17.37;;;1.50;99.90;;;;;;7810907;28;20183;-90
2023/12/07 09:45:54;;;;;;;31.83;17.27;;;1.50;99.90;;;;;;7777669;28;20298;-90
2023/12/07 09:49:40;;;;;;;41.20;24.60;;;1.50;99.90;;;;;;7783828;23;20600;-84
2023/12/07 09:53:28;;;;;;;28.03;15.77;;;1.40;99.90;;;;;;7744790;28;20179;-84
2023/12/07 09:57:15;;;;;;;31.63;15.87;;;1.50;99.90;;;;;;7743611;28;20676;-83
2023/12/07 10:01:01;;;;;;;30.03;16.70;;;1.40;99.90;;;;;;7716307;28;20189;-85
2023/12/07 10:04:47;;;;;;;31.00;17.03;;;1.60;99.90;;;;;;7714485;28;20184;-83
2023/12/07 10:08:37;;;;;;;31.57;17.40;;;1.50;99.90;;;;;;7747889;28;20274;-85
2023/12/07 10:12:22;;;;;;;30.17;15.97;;;1.50;99.90;;;;;;7709818;28;20280;-84
2023/12/07 10:16:14;;;;;;;30.63;16.50;;;1.50;99.90;;;;;;7705102;28;20181;-84
2023/12/07 10:20:09;;;;;;;30.50;16.90;;;1.50;99.90;;;;;;7717491;28;22423;-83
2023/12/07 10:23:55;;;;;;;29.30;16.20;;;1.50;99.90;;;;;;7708991;28;20230;-85
2023/12/07 10:27:42;;;;;;;29.03;15.27;;;1.50;99.90;;;;;;7712467;28;20208;-84
2023/12/07 10:31:30;;;;;;;29.60;15.67;;;1.50;99.90;;;;;;7735785;28;20208;-84
2023/12/07 10:35:17;;;;;;;29.97;16.03;;;1.50;99.90;;;;;;7710013;28;20189;-83
2023/12/07 10:39:06;;;;;;;31.80;16.90;;;1.50;99.90;;;;;;7726260;28;20228;-85
2023/12/07 10:42:56;;;;;;;32.47;16.90;;;1.50;99.90;;;;;;7713769;28;20195;-85
2023/12/07 10:46:43;;;;;;;31.30;16.10;;;1.50;99.90;;;;;;7706469;28;20185;-88
2023/12/07 10:50:31;;;;;;;31.10;16.80;;;1.50;99.90;;;;;;7716447;28;20239;-86
2023/12/07 10:54:23;;;;;;;32.07;16.43;;;1.60;99.90;;;;;;7716665;28;20196;-85
2023/12/07 10:58:10;;;;;;;31.10;16.53;;;1.50;99.90;;;;;;7713165;28;20196;-87
2023/12/07 11:01:57;;;;;;;36.50;19.40;;;1.50;99.90;;;;;;7717261;28;20567;-86
2023/12/07 11:05:47;;;;;;;35.93;18.17;;;1.60;99.90;;;;;;7695079;28;20260;-87
2023/12/07 11:09:38;;;;;;;31.90;16.60;;;1.50;99.90;;;;;;7709059;28;20283;-88
2023/12/07 11:13:35;;;;;;;30.30;16.80;;;1.60;99.90;;;;;;7723571;28;20188;-86
2023/12/07 11:17:22;;;;;;;33.50;17.43;;;1.60;99.90;;;;;;7708377;28;20216;-86
2023/12/07 11:21:08;;;;;;;32.80;16.93;;;1.50;99.90;;;;;;7730652;28;20267;-87
2023/12/07 11:24:57;;;;;;;36.40;18.07;;;1.50;99.90;;;;;;7724705;28;20188;-86
2023/12/07 11:28:43;;;;;;;33.27;17.07;;;1.40;99.90;;;;;;7717461;28;20218;-85
2023/12/07 11:32:29;;;;;;;32.17;16.47;;;1.60;99.90;;;;;;7716171;28;20177;-86
2023/12/07 11:36:15;;;;;;;30.50;16.57;;;1.40;99.90;;;;;;7726876;28;20269;-85
2023/12/07 11:40:01;;;;;;;30.90;16.23;;;1.50;99.90;;;;;;7745592;28;20223;-87
2023/12/07 11:43:46;;;;;;;35.93;18.57;;;1.50;99.90;;;;;;7745612;28;20191;-87
2023/12/07 11:47:32;;;;;;;34.37;17.33;;;1.50;99.90;;;;;;7729249;28;20217;-85
2023/12/07 11:51:17;;;;;;;32.67;17.03;;;1.50;99.90;;;;;;7716983;28;20245;-86
2023/12/07 11:55:04;;;;;;;33.77;17.80;;;1.50;99.90;;;;;;7746957;28;20187;-87
2023/12/07 11:58:50;;;;;;;36.27;17.80;;;1.50;99.90;;;;;;7724325;28;20208;-87
2023/12/07 12:02:37;;;;;;;32.97;17.13;;;1.60;99.90;;;;;;7739378;28;20254;-86
2023/12/07 12:06:27;;;;;;;32.03;16.80;;;1.50;99.90;;;;;;7713514;28;20196;-85
2023/12/07 12:10:13;;;;;;;33.63;17.03;;;1.60;99.90;;;;;;7718962;28;20228;-86
2023/12/07 12:13:58;;;;;;;29.70;15.97;;;1.50;99.90;;;;;;7719132;28;20650;-83
2023/12/07 12:17:44;;;;;;;31.67;17.00;;;1.50;99.90;;;;;;7751674;28;20285;-87
2023/12/07 12:21:34;;;;;;;32.43;16.63;;;1.70;99.90;;;;;;7734638;28;20188;-86
2023/12/07 12:25:33;;;;;;;30.33;16.17;;;1.60;99.90;;;;;;7729153;28;20165;-86
2023/12/07 12:29:21;;;;;;;30.87;17.67;;;1.60;99.90;;;;;;7722969;28;20701;-87
2023/12/07 12:33:06;;;;;;;30.30;16.50;;;1.60;99.90;;;;;;7749440;28;20179;-87
2023/12/07 12:36:56;;;;;;;31.83;17.00;;;1.60;99.90;;;;;;7717641;28;20204;-86
2023/12/07 12:40:43;;;;;;;29.47;16.43;;;1.60;99.90;;;;;;7718739;28;20188;-83
2023/12/07 12:44:30;;;;;;;33.43;16.80;;;1.60;99.90;;;;;;7747874;28;20184;-85
2023/12/07 12:48:15;;;;;;;34.07;16.93;;;1.50;99.90;;;;;;7750452;28;20235;-85
2023/12/07 12:52:01;;;;;;;31.03;16.47;;;1.60;99.90;;;;;;7742086;28;20183;-83
2023/12/07 12:55:47;;;;;;;31.27;15.87;;;1.50;99.90;;;;;;7721461;28;20200;-84
2023/12/07 12:59:32;;;;;;;37.40;17.37;;;1.60;99.90;;;;;;7718392;28;20205;-83
2023/12/07 13:03:18;;;;;;;34.83;17.33;;;1.60;99.90;;;;;;7718646;28;20240;-85
2023/12/07 13:07:04;;;;;;;32.07;15.97;;;1.60;99.90;;;;;;7749211;28;20199;-85
2023/12/07 13:10:49;;;;;;;33.60;17.30;;;1.50;99.90;;;;;;7750046;28;20195;-85
2023/12/07 13:14:37;;;;;;;31.70;16.50;;;1.60;99.90;;;;;;7734513;28;20256;-84
2023/12/07 13:18:23;;;;;;;31.93;15.90;;;1.50;99.90;;;;;;7720917;28;20271;-85
2023/12/07 13:22:09;;;;;;;27.23;14.70;;;1.50;99.90;;;;;;7715615;28;20189;-83
2023/12/07 13:25:55;;;;;;;26.90;15.27;;;1.50;99.90;;;;;;7720684;28;20216;-84
2023/12/07 13:29:41;;;;;;;27.93;15.27;;;1.50;99.90;;;;;;7711705;28;20556;-83
2023/12/07 13:33:27;;;;;;;26.47;15.17;;;1.50;99.90;;;;;;7718222;28;20184;-83
2023/12/07 13:37:12;;;;;;;28.17;15.97;;;1.40;99.90;;;;;;7725557;28;20228;-83
2023/12/07 13:40:58;;;;;;;38.03;19.53;;;1.50;99.90;;;;;;7715181;28;20512;-83
2023/12/07 13:44:44;;;;;;;25.60;14.70;;;1.60;99.90;;;;;;7711932;28;20263;-85
2023/12/07 13:48:30;;;;;;;28.60;15.27;;;1.60;99.90;;;;;;7731364;28;20243;-86
2023/12/07 13:52:17;;;;;;;27.70;15.00;;;1.60;99.90;;;;;;7732403;28;20189;-86
2023/12/07 13:56:04;;;;;;;29.27;15.33;;;1.60;99.90;;;;;;7716076;28;20183;-83
2023/12/07 13:59:51;;;;;;;32.43;16.70;;;1.60;99.90;;;;;;7713641;28;20213;-87
2023/12/07 14:03:37;;;;;;;30.00;17.80;;;1.60;99.90;;;;;;7711018;28;20197;-83
2023/12/07 14:07:23;;;;;;;30.83;17.13;;;1.60;99.90;;;;;;7725710;28;20215;-85
2023/12/07 14:11:11;;;;;;;40.27;22.33;;;1.60;99.90;;;;;;7717220;28;20662;-84
2023/12/07 14:14:57;;;;;;;31.33;18.17;;;1.60;99.90;;;;;;7712769;28;20185;-83
2023/12/07 14:18:42;;;;;;;35.20;18.90;;;1.60;99.90;;;;;;7719825;28;20200;-84
2023/12/07 14:22:28;;;;;;;33.57;18.13;;;1.60;99.90;;;;;;7730080;28;20234;-83
2023/12/07 14:26:14;;;;;;;33.17;18.33;;;1.60;99.90;;;;;;7718449;28;20256;-83
2023/12/07 14:29:59;;;;;;;34.30;19.83;;;1.60;99.90;;;;;;7703336;28;20216;-84
2023/12/07 14:33:45;;;;;;;38.70;19.93;;;1.60;99.90;;;;;;7707270;28;20250;-83
2023/12/07 14:37:30;;;;;;;37.10;20.50;;;1.60;99.90;;;;;;7714399;28;20213;-84
2023/12/07 14:41:16;;;;;;;34.57;18.83;;;1.60;99.90;;;;;;7743642;28;20642;-86
2023/12/07 14:45:04;;;;;;;37.57;20.53;;;1.60;99.90;;;;;;7744300;28;20299;-85
2023/12/07 14:48:50;;;;;;;43.17;22.60;;;1.60;99.90;;;;;;7745928;28;20301;-84
2023/12/07 14:52:37;;;;;;;48.03;24.93;;;1.60;99.90;;;;;;7738786;28;20617;-85
2023/12/07 14:56:23;;;;;;;42.03;22.63;;;1.60;99.90;;;;;;7714455;28;20184;-85
2023/12/07 15:00:09;;;;;;;41.87;22.93;;;1.60;99.90;;;;;;7741555;28;20208;-83
2023/12/07 15:03:54;;;;;;;39.23;22.07;;;1.50;99.90;;;;;;7761074;28;20279;-83
2023/12/07 15:07:40;;;;;;;43.20;25.07;;;1.50;99.90;;;;;;7745661;28;20207;-84
2023/12/07 15:11:26;;;;;;;42.70;22.57;;;1.50;99.90;;;;;;7741853;28;20205;-83
2023/12/07 15:15:12;;;;;;;44.47;23.10;;;1.60;99.90;;;;;;7725128;28;20239;-84
2023/12/07 15:18:57;;;;;;;34.87;20.13;;;1.50;99.90;;;;;;7729122;28;20211;-84
2023/12/07 15:22:44;;;;;;;34.27;18.33;;;1.60;99.90;;;;;;7721243;28;20211;-82
2023/12/07 15:26:30;;;;;;;35.13;19.13;;;1.60;99.90;;;;;;7705575;28;20205;-83
2023/12/07 15:30:16;;;;;;;35.27;18.90;;;1.60;99.90;;;;;;7704417;28;20196;-84
2023/12/07 15:34:01;;;;;;;37.67;22.17;;;1.60;99.90;;;;;;7718910;28;20275;-83
2023/12/07 15:37:47;;;;;;;36.03;20.20;;;1.60;99.90;;;;;;7753694;28;20644;-84
2023/12/07 15:41:33;;;;;;;38.90;21.10;;;1.60;99.90;;;;;;7726654;28;20188;-85
2023/12/07 15:45:18;;;;;;;35.63;20.27;;;1.70;99.90;;;;;;7752387;28;20275;-86
2023/12/07 15:49:04;;;;;;;39.57;21.03;;;1.60;99.90;;;;;;7721312;28;20211;-84
2023/12/07 15:52:50;;;;;;;41.73;21.70;;;1.50;99.90;;;;;;7723375;28;20161;-84
2023/12/07 15:56:44;;;;;;;47.33;23.30;;;1.50;99.90;;;;;;7719955;28;20204;-85
2023/12/07 16:00:30;;;;;;;41.30;21.53;;;1.60;99.90;;;;;;7714212;28;20195;-85
2023/12/07 16:04:18;;;;;;;33.30;19.03;;;1.60;99.90;;;;;;7697362;28;20224;-84
2023/12/07 16:08:04;;;;;;;38.10;18.97;;;1.60;99.90;;;;;;7728729;28;20231;-86
2023/12/07 16:11:49;;;;;;;34.47;19.33;;;1.70;99.90;;;;;;7714981;28;20188;-86
2023/12/07 16:15:35;;;;;;;36.37;19.97;;;1.60;99.90;;;;;;7722263;28;20243;-84
2023/12/07 16:19:21;;;;;;;32.60;18.63;;;1.60;99.90;;;;;;7713941;28;20212;-85
2023/12/07 16:23:07;;;;;;;36.57;19.53;;;1.60;99.90;;;;;;7725395;28;20195;-84
2023/12/07 16:26:59;;;;;;;34.97;19.67;;;1.60;99.90;;;;;;7719611;28;20295;-85
2023/12/07 16:30:44;;;;;;;32.70;18.17;;;1.60;99.90;;;;;;7716683;28;20208;-85
2023/12/07 16:34:30;;;;;;;32.50;17.77;;;1.60;99.90;;;;;;7717150;28;20185;-85
2023/12/07 16:38:16;;;;;;;35.93;19.00;;;1.60;99.90;;;;;;7721637;28;20218;-84
2023/12/07 16:42:02;;;;;;;31.43;18.80;;;1.60;99.90;;;;;;7718336;28;20177;-85
2023/12/07 16:45:49;;;;;;;32.33;18.37;;;1.60;99.90;;;;;;7708452;28;20833;-85
2023/12/07 16:49:35;;;;;;;32.07;18.10;;;1.60;99.90;;;;;;7708400;28;20214;-85
2023/12/07 16:53:21;;;;;;;33.57;17.90;;;1.60;99.90;;;;;;7712807;28;20228;-84
2023/12/07 16:57:07;;;;;;;30.17;16.97;;;1.60;99.90;;;;;;7733247;28;20568;-83
2023/12/07 17:00:53;;;;;;;29.73;16.87;;;1.60;99.90;;;;;;7722236;28;20180;-84
2023/12/07 17:04:39;;;;;;;34.50;17.43;;;1.70;99.90;;;;;;7724615;28;20286;-83
2023/12/07 17:08:25;;;;;;;29.23;16.00;;;1.60;99.90;;;;;;7716853;28;20262;-84
2023/12/07 17:12:11;;;;;;;29.57;15.50;;;1.60;99.90;;;;;;7762612;28;20172;-83
2023/12/07 17:15:56;;;;;;;32.20;18.17;;;1.60;99.90;;;;;;7724376;28;20184;-85
2023/12/07 17:19:42;;;;;;;32.30;17.23;;;1.50;99.90;;;;;;7723718;28;21152;-84
2023/12/07 17:23:28;;;;;;;39.00;26.10;;;1.50;99.90;;;;;;7716217;28;20907;-84
2023/12/07 17:27:14;;;;;;;39.80;21.30;;;1.70;99.90;;;;;;7719713;28;20207;-85
2023/12/07 17:30:59;;;;;;;31.23;18.80;;;1.70;99.90;;;;;;7720276;28;20209;-84
2023/12/07 17:34:45;;;;;;;38.53;20.17;;;1.80;99.90;;;;;;7715229;28;20172;-84
2023/12/07 17:38:31;;;;;;;33.00;19.03;;;1.60;99.90;;;;;;7726223;28;20208;-85
2023/12/07 17:42:16;;;;;;;30.73;17.73;;;1.60;99.90;;;;;;7704138;28;20250;-84
2023/12/07 17:46:02;;;;;;;35.27;19.10;;;1.60;99.90;;;;;;7715707;28;20196;-85
2023/12/07 17:49:48;;;;;;;33.90;19.30;;;1.60;99.90;;;;;;7687873;28;20228;-85
2023/12/07 17:53:34;;;;;;;35.27;20.27;;;1.50;99.90;;;;;;7720550;28;20184;-85
2023/12/07 17:57:19;;;;;;;43.63;22.57;;;1.70;99.90;;;;;;7719725;28;20212;-85
2023/12/07 18:01:05;;;;;;;46.50;23.97;;;1.60;99.90;;;;;;7697659;28;20283;-84
2023/12/07 18:04:51;;;;;;;49.60;24.03;;;1.60;99.90;;;;;;7723337;28;20188;-84
2023/12/07 18:08:37;;;;;;;47.80;24.83;;;1.60;99.90;;;;;;7718222;28;20307;-84
2023/12/07 18:12:22;;;;;;;47.30;23.93;;;1.60;99.90;;;;;;7716331;28;20223;-85
2023/12/07 18:16:08;;;;;;;48.40;24.67;;;1.60;99.90;;;;;;7713532;28;20192;-84
2023/12/07 18:19:53;;;;;;;47.43;23.47;;;1.60;99.90;;;;;;7725638;28;20281;-85
2023/12/07 18:23:42;;;;;;;35.40;19.53;;;1.70;99.90;;;;;;7737458;28;20189;-86
2023/12/07 18:27:28;;;;;;;33.50;18.33;;;1.60;99.90;;;;;;7685579;28;20268;-86
2023/12/07 18:31:14;;;;;;;32.53;17.37;;;1.70;99.90;;;;;;7710799;28;20209;-86
2023/12/07 18:34:59;;;;;;;30.23;16.30;;;1.60;99.90;;;;;;7684426;28;20236;-85
2023/12/07 18:38:46;;;;;;;33.53;18.50;;;1.60;99.90;;;;;;7687778;28;20205;-85
2023/12/07 18:42:32;;;;;;;38.57;21.13;;;1.60;99.90;;;;;;7722543;28;20196;-85
2023/12/07 18:46:18;;;;;;;43.57;20.90;;;1.60;99.90;;;;;;7714956;28;20291;-86
2023/12/07 18:50:05;;;;;;;41.47;20.93;;;1.60;99.90;;;;;;7714400;28;20228;-85
2023/12/07 18:53:50;;;;;;;33.93;18.03;;;1.60;99.90;;;;;;7717665;28;20180;-85
2023/12/07 18:57:36;;;;;;;34.90;18.93;;;1.60;99.90;;;;;;7723356;28;20266;-86
2023/12/07 19:01:35;;;;;;;30.07;16.83;;;1.50;99.90;;;;;;7728084;28;20673;-85
2023/12/07 19:05:21;;;;;;;33.13;17.23;;;1.50;99.90;;;;;;7714625;28;20563;-86
2023/12/07 19:09:08;;;;;;;31.80;16.97;;;1.50;99.90;;;;;;7714578;28;20227;-85
2023/12/07 19:12:55;;;;;;;34.53;17.73;;;1.60;99.90;;;;;;7716329;28;20173;-85
2023/12/07 19:16:41;;;;;;;51.73;26.77;;;1.60;99.90;;;;;;7716076;28;20192;-85
2023/12/07 19:20:26;;;;;;;59.27;31.27;;;1.60;99.90;;;;;;7738996;28;20246;-86